Home   Weather   Sweden   Malmö   Past weeks
Flag for Sweden

Past Weather in Malmö, Sweden — Yesterday and Last 2 Weeks

Currently: 28 °F. Ice fog. (Weather station: Malmo / Sturup, Sweden). See more current weather

Past Weather in Malmö — Graph

°F

Malmö Temperature Yesterday

Maximum temperature yesterday: 32 °F (at 12:20 am)
Minimum temperature yesterday: 27 °F (at 5:20 pm)
Average temperature yesterday: 29 °F

High & Low Weather Summary for the Past Weeks

 TemperatureHumidityPressure
High43 °F (Jan 31, 4:20 pm)100% (Jan 25, 10:20 pm)30.74 "Hg (Jan 25, 10:20 pm)
Low21 °F (Jan 28, 2:20 am)51% (Feb 4, 2:50 pm)29.36 "Hg (Jan 30, 12:50 pm)
Average34 °F87%30.17 "Hg
* Reported Jan 22 11:20 pm — Feb 6 11:50 pm, Malmö. Weather by CustomWeather, © 2023

Note: Actual official high and low records may vary slightly from our data, if they occured in-between our weather recording intervals... More about our weather records

Malmö Weather History for the Previous 24 Hours

Scroll right to see more
 ConditionsComfort  
Time TempWeatherWind HumidityBarometerVisibility
11:50 pm
Mon, Feb 6
28 °FIce fog.6 mph100%30.74 "Hg1 mi
10:50 pm28 °FIce fog.6 mph100%30.74 "Hg1 mi
10:20 pm28 °FLow clouds.6 mph100%30.74 "Hg1 mi
9:50 pm28 °FLow clouds.7 mph100%30.74 "Hg1 mi
9:20 pm28 °FIce fog.7 mph93%30.74 "Hg1 mi
8:50 pm28 °FIce fog.6 mph93%30.74 "Hg0 mi
8:20 pm27 °FIce fog.5 mph100%30.74 "Hg0 mi
7:50 pm27 °FIce fog.5 mph100%30.74 "Hg0 mi
7:20 pm27 °FIce fog.5 mph100%30.74 "Hg0 mi
6:50 pm27 °FIce fog.3 mph100%30.74 "Hg0 mi
6:20 pm27 °FIce fog.3 mph100%30.74 "Hg0 mi
5:50 pm28 °FIce fog.3 mph93%30.72 "Hg0 mi
5:20 pm27 °FFog.2 mph100%30.72 "Hg1 mi
4:50 pm28 °FIce fog.3 mph93%30.72 "Hg3 mi
4:20 pm28 °FLow clouds.3 mph93%30.72 "HgN/A
3:50 pm28 °FLow clouds.3 mph93%30.72 "HgN/A
3:20 pm28 °FLow clouds.3 mph93%30.72 "HgN/A
2:50 pm30 °FLow clouds.3 mph86%30.72 "HgN/A
2:20 pm30 °FLow clouds.5 mph86%30.74 "HgN/A
1:50 pm30 °FLow clouds.3 mph93%30.72 "HgN/A
1:20 pm30 °FLow clouds.3 mph93%30.72 "HgN/A
12:50 pm28 °FLow clouds.3 mph93%30.72 "Hg6 mi
12:20 pm28 °FLow clouds.1 mph93%30.72 "Hg6 mi
11:50 am28 °FLow clouds.5 mph100%30.72 "Hg6 mi
11:20 am28 °FLow clouds.5 mph93%30.72 "Hg4 mi
10:50 am28 °FLow clouds.6 mph93%30.69 "Hg4 mi
10:20 am28 °FLow clouds.6 mph100%30.69 "Hg4 mi
9:50 am28 °FLow clouds.5 mph100%30.69 "Hg3 mi
9:20 am28 °FIce fog.7 mph100%30.69 "Hg3 mi
8:50 am28 °FIce fog.8 mph100%30.69 "Hg3 mi
8:20 am28 °FIce fog.8 mph100%30.69 "Hg1 mi
7:50 am28 °FIce fog.10 mph100%30.69 "Hg2 mi
7:20 am28 °FIce fog.12 mph100%30.69 "Hg2 mi
6:50 am30 °FLow clouds.12 mph93%30.66 "Hg3 mi
6:20 am30 °FLow clouds.10 mph93%30.66 "HgN/A
5:50 am30 °FLow clouds.12 mph93%30.66 "Hg6 mi
5:20 am30 °FPassing clouds.13 mph93%30.66 "Hg6 mi
4:50 am30 °FPassing clouds.7 mph93%30.63 "HgN/A
4:20 am28 °FPassing clouds.8 mph93%30.63 "HgN/A
3:50 am28 °FPassing clouds.6 mph93%30.63 "HgN/A
3:20 am32 °FPassing clouds.9 mph87%30.66 "HgN/A
2:50 am32 °FOvercast.10 mph87%30.66 "HgN/A
2:20 am32 °FOvercast.8 mph93%30.63 "HgN/A
12:20 am32 °FIce fog.6 mph100%30.63 "Hg1 mi
Weather by CustomWeather, © 2023

See weather overview